Time;durP1;ratioP1;P1;durP2;ratioP2;P2;SDS_P1;SDS_P2;PMS_P1;PMS_P2;Temp;Humidity;BMP_temperature;BMP_pressure;BME280_temperature;BME280_humidity;BME280_pressure;Samples;Min_cycle;Max_cycle;Signal;HPM_P1;HPM_P2
2023/04/01 00:01:04;;;;;;;18.48;12.77;;;;;;;10.63;100.00;98996.75;5051493;28;20021;-46
2023/04/01 00:03:30;;;;;;;19.00;12.30;;;;;;;10.70;100.00;99016.28;5051414;28;20029;-45
2023/04/01 00:05:57;;;;;;;18.75;12.95;;;;;;;10.68;100.00;99010.31;5051381;28;20032;-46
2023/04/01 00:08:24;;;;;;;18.67;12.38;;;;;;;10.73;100.00;99017.53;5051591;28;20025;-44
2023/04/01 00:10:49;;;;;;;18.35;12.70;;;;;;;10.69;100.00;99014.69;5051462;28;20041;-44
2023/04/01 00:13:15;;;;;;;18.45;12.70;;;;;;;10.69;100.00;99019.44;5051416;28;20029;-46
2023/04/01 00:15:41;;;;;;;18.35;12.63;;;;;;;10.66;100.00;99011.81;5051152;28;20029;-44
2023/04/01 00:18:07;;;;;;;18.38;12.70;;;;;;;10.63;100.00;99018.88;5051258;28;20201;-46
2023/04/01 00:20:32;;;;;;;18.45;12.77;;;;;;;10.64;100.00;99016.91;5050807;28;20641;-46
2023/04/01 00:22:57;;;;;;;19.80;12.10;;;;;;;10.61;100.00;99022.00;5051011;28;20041;-45
2023/04/01 00:25:24;;;;;;;18.33;12.68;;;;;;;10.60;100.00;99014.84;5051155;28;20532;-47
2023/04/01 00:27:49;;;;;;;18.25;12.73;;;;;;;10.62;100.00;99022.78;5051327;28;20036;-44
2023/04/01 00:30:16;;;;;;;18.45;12.80;;;;;;;10.57;100.00;99010.00;5051272;28;20029;-45
2023/04/01 00:32:41;;;;;;;17.70;12.52;;;;;;;10.58;100.00;99028.22;5051067;28;20044;-47
2023/04/01 00:35:07;;;;;;;17.58;12.70;;;;;;;10.56;100.00;99025.00;5051092;28;20062;-44
2023/04/01 00:37:34;;;;;;;17.38;12.35;;;;;;;10.53;100.00;99028.44;5051044;28;20055;-46
2023/04/01 00:40:00;;;;;;;17.60;13.20;;;;;;;10.57;100.00;99028.56;5051050;28;20025;-44
2023/04/01 00:42:25;;;;;;;17.58;12.30;;;;;;;10.60;100.00;99022.31;5033186;28;20037;-43
2023/04/01 00:44:52;;;;;;;17.80;12.40;;;;;;;10.60;100.00;99033.38;5051269;28;20043;-45
2023/04/01 00:47:19;;;;;;;19.15;12.80;;;;;;;10.53;100.00;99027.66;5051138;28;20467;-47
2023/04/01 00:49:48;;;;;;;18.52;12.95;;;;;;;10.54;100.00;99024.53;5050163;28;20052;-42
2023/04/01 00:52:17;;;;;;;17.95;13.27;;;;;;;10.53;100.00;99033.97;5048373;28;20390;-43
2023/04/01 00:54:46;;;;;;;17.88;13.13;;;;;;;10.54;100.00;99032.81;5051099;28;20078;-44
2023/04/01 00:57:21;;;;;;;17.70;13.23;;;;;;;10.56;100.00;99047.09;5051148;28;20032;-44
2023/04/01 00:59:49;;;;;;;18.48;13.15;;;;;;;10.55;100.00;99039.19;5055045;28;20055;-44
2023/04/01 01:02:15;;;;;;;19.25;13.70;;;;;;;10.55;100.00;99036.41;5054979;28;20036;-43
2023/04/01 01:04:41;;;;;;;18.88;13.57;;;;;;;10.57;100.00;99050.69;5054917;28;20458;-47
2023/04/01 01:07:28;;;;;;;19.42;13.75;;;;;;;10.59;100.00;99048.38;5054586;28;20111;-47
2023/04/01 01:10:15;;;;;;;20.02;13.88;;;;;;;10.60;100.00;99056.31;5054564;28;20474;-46
2023/04/01 01:13:02;;;;;;;19.23;13.95;;;;;;;10.68;100.00;99051.00;5054340;28;20033;-47
2023/04/01 01:15:41;;;;;;;18.98;13.82;;;;;;;10.67;100.00;99047.44;5054475;28;20116;-43
2023/04/01 01:18:29;;;;;;;18.35;13.90;;;;;;;10.64;100.00;99041.78;5054372;28;20059;-43
2023/04/01 01:21:45;;;;;;;18.90;14.25;;;;;;;10.65;100.00;99057.22;5054265;28;20482;-43
2023/04/01 01:24:25;;;;;;;21.08;14.73;;;;;;;10.59;100.00;99053.88;5011486;28;20398;-47
2023/04/01 01:27:04;;;;;;;18.40;14.05;;;;;;;10.63;100.00;99057.59;5053981;28;20033;-45
2023/04/01 01:29:42;;;;;;;18.67;13.93;;;;;;;10.54;100.00;99046.66;5054072;28;20045;-44
2023/04/01 01:32:27;;;;;;;19.38;14.68;;;;;;;10.58;100.00;99052.31;5053856;28;20055;-45
2023/04/01 01:35:14;;;;;;;19.02;14.27;;;;;;;10.57;100.00;99057.00;5053946;28;20078;-43
2023/04/01 01:37:42;;;;;;;19.15;14.43;;;;;;;10.52;100.00;99054.50;5053941;28;20033;-45
2023/04/01 01:40:12;;;;;;;18.83;14.40;;;;;;;10.55;100.00;99064.06;5053903;28;20033;-46
2023/04/01 01:42:42;;;;;;;19.02;15.20;;;;;;;10.46;100.00;99055.88;5054681;28;20371;-46
2023/04/01 01:45:09;;;;;;;19.40;15.10;;;;;;;10.51;100.00;99068.66;5053805;28;20037;-46
2023/04/01 01:47:36;;;;;;;18.60;14.80;;;;;;;10.53;100.00;99082.94;5049995;28;20033;-47
2023/04/01 01:50:03;;;;;;;19.33;15.10;;;;;;;10.52;100.00;99084.91;5053777;28;20048;-44
2023/04/01 01:52:29;;;;;;;19.40;14.90;;;;;;;10.53;100.00;99080.19;5053530;28;20033;-43
2023/04/01 01:54:56;;;;;;;19.10;14.38;;;;;;;10.51;100.00;99075.00;5053645;28;20036;-45
2023/04/01 01:57:43;;;;;;;19.10;15.02;;;;;;;10.55;100.00;99080.66;5053484;28;20021;-44
2023/04/01 02:00:14;;;;;;;19.67;15.10;;;;;;;10.48;100.00;99080.44;5053618;28;20083;-45
2023/04/01 02:02:41;;;;;;;19.63;15.45;;;;;;;10.51;100.00;99077.78;5053346;28;20063;-45
2023/04/01 02:05:12;;;;;;;19.98;15.38;;;;;;;10.52;100.00;99095.97;5053358;28;20029;-46
2023/04/01 02:07:39;;;;;;;19.27;15.52;;;;;;;10.45;100.00;99079.97;5053397;28;20111;-44
2023/04/01 02:10:05;;;;;;;19.92;15.60;;;;;;;10.50;100.00;99086.41;5052289;28;20025;-47
2023/04/01 02:12:32;;;;;;;20.27;15.93;;;;;;;10.43;100.00;99084.25;5053487;28;20032;-47
2023/04/01 02:15:08;;;;;;;20.60;16.65;;;;;;;10.48;100.00;99097.03;5053466;28;20029;-46
2023/04/01 02:17:36;;;;;;;21.55;16.88;;;;;;;10.45;100.00;99098.50;5053233;28;20033;-47
2023/04/01 02:20:15;;;;;;;21.83;17.05;;;;;;;10.48;100.00;99092.28;5053269;28;20128;-46
2023/04/01 02:22:46;;;;;;;20.73;15.63;;;;;;;10.45;100.00;99091.03;5052984;28;20052;-43
2023/04/01 02:25:15;;;;;;;20.83;15.52;;;;;;;10.46;100.00;99100.13;5053195;28;20025;-43
2023/04/01 02:27:43;;;;;;;19.48;15.20;;;;;;;10.46;100.00;99094.59;5053278;28;20111;-44
2023/04/01 02:30:09;;;;;;;18.98;14.52;;;;;;;10.45;100.00;99099.34;5053105;28;20035;-45
2023/04/01 02:32:37;;;;;;;19.95;14.95;;;;;;;10.45;100.00;99102.09;5052856;28;20025;-44
2023/04/01 02:35:05;;;;;;;19.27;14.80;;;;;;;10.43;100.00;99098.88;5034876;28;20418;-46
2023/04/01 02:37:31;;;;;;;19.63;15.10;;;;;;;10.42;100.00;99102.78;5052925;28;20036;-45
2023/04/01 02:40:02;;;;;;;18.70;14.30;;;;;;;10.43;100.00;99106.38;5052869;28;20020;-46
2023/04/01 02:42:27;;;;;;;19.10;14.50;;;;;;;10.40;100.00;99107.84;5048974;28;20463;-45
2023/04/01 02:44:52;;;;;;;19.73;14.32;;;;;;;10.38;100.00;99103.81;5034863;28;20051;-46
2023/04/01 02:47:17;;;;;;;18.77;14.73;;;;;;;10.36;100.00;99103.31;5052732;28;20036;-44
2023/04/01 02:49:43;;;;;;;18.95;14.20;;;;;;;10.37;100.00;99113.22;5052577;28;20028;-46
2023/04/01 02:52:08;;;;;;;18.75;14.50;;;;;;;10.33;100.00;99110.38;5052566;28;20029;-47
2023/04/01 02:54:33;;;;;;;19.45;14.77;;;;;;;10.33;100.00;99115.91;5052376;28;20113;-45
2023/04/01 02:56:59;;;;;;;19.92;15.20;;;;;;;10.32;100.00;99122.56;5052316;28;20033;-45
2023/04/01 02:59:24;;;;;;;19.67;15.60;;;;;;;10.33;100.00;99113.13;5052462;28;20024;-44
2023/04/01 03:01:49;;;;;;;19.80;15.48;;;;;;;10.30;100.00;99117.41;5052533;28;20112;-48
2023/04/01 03:04:15;;;;;;;19.80;15.60;;;;;;;10.33;100.00;99120.63;5052319;28;20356;-45
2023/04/01 03:06:40;;;;;;;20.45;16.17;;;;;;;10.31;100.00;99123.72;5052458;28;20025;-47
2023/04/01 03:09:05;;;;;;;21.00;16.20;;;;;;;10.30;100.00;99120.16;5052218;28;20048;-43
2023/04/01 03:11:30;;;;;;;20.35;15.68;;;;;;;10.30;100.00;99125.69;5051764;28;20028;-44
2023/04/01 03:13:56;;;;;;;21.52;16.80;;;;;;;10.28;100.00;99128.00;5052021;28;20025;-44
2023/04/01 03:16:22;;;;;;;19.88;15.80;;;;;;;10.28;100.00;99138.25;5051984;28;20482;-47
2023/04/01 03:18:49;;;;;;;20.38;16.17;;;;;;;10.24;100.00;99126.25;5051736;28;20513;-44
2023/04/01 03:21:18;;;;;;;19.60;15.98;;;;;;;10.21;100.00;99125.00;5051933;28;20029;-43
2023/04/01 03:23:43;;;;;;;21.15;16.50;;;;;;;10.14;100.00;99120.03;5051741;28;20083;-45
2023/04/01 03:26:09;;;;;;;20.90;16.88;;;;;;;10.19;100.00;99130.06;5051736;28;20064;-48
2023/04/01 03:28:35;;;;;;;21.55;16.48;;;;;;;10.18;100.00;99122.13;5051934;28;20025;-45
2023/04/01 03:31:00;;;;;;;21.77;17.58;;;;;;;10.17;100.00;99129.59;5051809;28;20494;-47
2023/04/01 03:33:25;;;;;;;22.08;17.33;;;;;;;10.19;100.00;99130.06;5051564;28;20029;-45
2023/04/01 03:35:51;;;;;;;21.35;16.80;;;;;;;10.20;100.00;99139.19;5051697;28;20422;-45
2023/04/01 03:38:17;;;;;;;22.88;17.58;;;;;;;10.20;100.00;99133.66;5047913;28;20036;-45
2023/04/01 03:40:43;;;;;;;22.60;17.25;;;;;;;10.14;100.00;99136.63;5051775;28;20071;-48
2023/04/01 03:43:09;;;;;;;22.02;17.27;;;;;;;10.18;100.00;99139.50;5051752;28;20020;-47
2023/04/01 03:45:35;;;;;;;21.60;16.88;;;;;;;10.16;100.00;99139.03;5051783;28;20055;-44
2023/04/01 03:48:00;;;;;;;21.23;16.98;;;;;;;10.14;100.00;99142.16;5051672;28;20029;-46
2023/04/01 03:50:26;;;;;;;20.98;16.83;;;;;;;10.15;100.00;99149.28;5051582;28;20055;-48
2023/04/01 03:52:51;;;;;;;20.10;16.05;;;;;;;10.09;100.00;99142.41;5051644;28;20029;-45
2023/04/01 03:55:17;;;;;;;20.25;15.50;;;;;;;10.15;100.00;99146.53;5051468;28;20036;-47
2023/04/01 03:57:43;;;;;;;22.60;17.02;;;;;;;10.17;100.00;99153.66;5051547;28;20028;-47
2023/04/01 04:00:09;;;;;;;19.77;15.43;;;;;;;10.15;100.00;99154.03;5051608;28;20044;-47
2023/04/01 04:02:35;;;;;;;20.63;15.05;;;;;;;10.19;100.00;99148.63;5051486;28;20039;-46
2023/04/01 04:05:00;;;;;;;20.02;14.73;;;;;;;10.22;100.00;99153.44;5051532;28;20054;-44
2023/04/01 04:07:26;;;;;;;18.77;14.85;;;;;;;10.20;100.00;99153.00;5051560;28;20033;-44
2023/04/01 04:09:51;;;;;;;18.70;14.07;;;;;;;10.21;100.00;99160.94;5051523;28;20064;-44
2023/04/01 04:12:16;;;;;;;19.45;14.00;;;;;;;10.21;100.00;99163.69;5033496;28;20059;-46
2023/04/01 04:14:41;;;;;;;17.88;13.43;;;;;;;10.20;100.00;99166.81;5051299;28;20570;-47
2023/04/01 04:17:15;;;;;;;18.55;13.95;;;;;;;10.14;100.00;99163.47;5051111;28;20061;-44
2023/04/01 04:19:41;;;;;;;18.63;13.70;;;;;;;10.10;100.00;99163.34;5051477;28;20451;-46
2023/04/01 04:22:06;;;;;;;19.08;13.68;;;;;;;10.13;100.00;99170.13;5051081;28;20048;-48
2023/04/01 04:24:34;;;;;;;19.52;14.07;;;;;;;10.08;100.00;99173.94;5051224;28;20140;-45
2023/04/01 04:26:59;;;;;;;19.33;14.48;;;;;;;10.07;100.00;99172.31;5051192;28;20482;-46
2023/04/01 04:29:25;;;;;;;18.80;14.13;;;;;;;10.07;100.00;99179.78;5050634;28;20029;-43
2023/04/01 04:31:50;;;;;;;18.40;13.68;;;;;;;10.07;100.00;99182.53;5051256;28;20029;-44
2023/04/01 04:34:15;;;;;;;20.05;14.20;;;;;;;10.08;100.00;99179.47;5054185;28;20059;-43
2023/04/01 04:36:41;;;;;;;18.30;13.63;;;;;;;10.02;100.00;99180.81;5051141;28;20024;-45
2023/04/01 04:39:06;;;;;;;18.75;13.55;;;;;;;9.90;100.00;99158.72;5054326;28;20488;-47
2023/04/01 04:41:32;;;;;;;18.30;13.80;;;;;;;10.05;100.00;99184.88;5054898;28;20036;-45
2023/04/01 04:43:58;;;;;;;18.60;14.02;;;;;;;10.07;100.00;99190.84;5036873;28;20078;-46
2023/04/01 04:46:24;;;;;;;18.80;13.80;;;;;;;10.03;100.00;99192.69;5036868;28;20759;-44
2023/04/01 04:48:49;;;;;;;18.52;13.48;;;;;;;10.06;100.00;99187.28;5054914;28;20032;-47
2023/04/01 04:51:17;;;;;;;17.40;13.38;;;;;;;10.05;100.00;99193.94;5054991;28;20458;-44
2023/04/01 04:53:43;;;;;;;18.95;13.80;;;;;;;10.04;100.00;99192.34;5054934;28;20021;-48
2023/04/01 04:56:08;;;;;;;19.17;13.88;;;;;;;9.99;100.00;99187.84;5054822;28;20031;-48
2023/04/01 04:58:33;;;;;;;18.00;13.90;;;;;;;10.03;100.00;99209.25;5054903;28;20040;-44
2023/04/01 05:01:05;;;;;;;18.10;13.90;;;;;;;9.90;100.00;99187.13;5054667;28;20048;-47
2023/04/01 05:03:30;;;;;;;17.85;13.82;;;;;;;10.02;100.00;99215.94;5054833;28;20033;-45
2023/04/01 05:05:55;;;;;;;18.15;13.60;;;;;;;10.02;100.00;99213.19;5054539;28;20078;-47
2023/04/01 05:08:21;;;;;;;17.98;13.70;;;;;;;9.98;100.00;99213.06;5054424;28;20074;-44
2023/04/01 05:10:46;;;;;;;18.02;13.32;;;;;;;10.01;100.00;99219.84;5054553;28;20116;-44
2023/04/01 05:13:11;;;;;;;17.98;13.65;;;;;;;10.01;100.00;99225.38;5054401;28;20025;-47
2023/04/01 05:15:37;;;;;;;18.27;13.43;;;;;;;9.98;100.00;99224.09;5054372;28;20021;-46
2023/04/01 05:18:02;;;;;;;18.50;13.57;;;;;;;9.95;100.00;99222.00;5054146;28;20382;-47
2023/04/01 05:20:28;;;;;;;19.52;14.25;;;;;;;9.95;100.00;99233.88;5054300;28;20090;-46
2023/04/01 05:22:57;;;;;;;18.15;13.90;;;;;;;9.97;100.00;99234.34;5053846;28;20512;-45
2023/04/01 05:25:22;;;;;;;18.58;13.98;;;;;;;9.96;100.00;99237.44;5054130;28;20467;-46
2023/04/01 05:27:48;;;;;;;18.00;13.55;;;;;;;9.95;100.00;99233.88;5054113;28;20036;-47
2023/04/01 05:30:13;;;;;;;18.63;14.07;;;;;;;9.94;100.00;99246.09;5054163;28;20558;-44
2023/04/01 05:32:38;;;;;;;18.48;14.18;;;;;;;9.97;100.00;99250.13;5049943;28;20025;-44
2023/04/01 05:35:04;;;;;;;18.92;13.95;;;;;;;9.96;100.00;99243.78;5053935;28;20027;-47
2023/04/01 05:37:30;;;;;;;18.67;14.13;;;;;;;9.93;100.00;99249.16;5054011;28;20168;-48
2023/04/01 05:39:55;;;;;;;18.95;14.18;;;;;;;9.92;100.00;99256.66;5053921;28;20039;-46
2023/04/01 05:42:20;;;;;;;18.38;14.52;;;;;;;9.94;100.00;99261.84;5053436;28;20068;-47
2023/04/01 05:44:46;;;;;;;18.73;14.38;;;;;;;9.95;100.00;99267.03;5054069;28;20029;-44
2023/04/01 05:47:11;;;;;;;20.52;14.63;;;;;;;10.01;100.00;99266.81;5035745;28;20788;-44
2023/04/01 05:49:36;;;;;;;18.70;14.50;;;;;;;9.97;100.00;99273.00;5053535;28;20036;-47
2023/04/01 05:52:01;;;;;;;19.15;14.75;;;;;;;9.98;100.00;99277.38;5053624;28;20478;-45
2023/04/01 05:54:27;;;;;;;19.70;14.98;;;;;;;10.00;100.00;99277.06;5035389;28;20029;-43
2023/04/01 05:56:52;;;;;;;20.10;15.57;;;;;;;10.00;100.00;99285.34;5053439;28;20021;-44
2023/04/01 05:59:17;;;;;;;19.67;15.38;;;;;;;10.04;100.00;99277.97;5053362;28;20557;-45
2023/04/01 06:01:43;;;;;;;24.48;16.00;;;;;;;10.03;100.00;99284.66;5053424;28;20657;-44
2023/04/01 06:04:15;;;;;;;22.48;17.38;;;;;;;9.98;100.00;99287.66;5053384;28;20582;-44
2023/04/01 06:06:40;;;;;;;23.58;17.63;;;;;;;10.06;100.00;99303.31;5053738;28;20021;-44
2023/04/01 06:09:19;;;;;;;22.58;17.75;;;;;;;10.08;100.00;99314.03;5053441;28;20017;-46
2023/04/01 06:12:09;;;;;;;22.45;17.55;;;;;;;10.07;100.00;99316.00;5053476;28;20440;-47
2023/04/01 06:15:02;;;;;;;22.90;17.85;;;;;;;10.09;100.00;99324.75;5053496;28;20033;-44
2023/04/01 06:18:06;;;;;;;22.98;17.75;;;;;;;10.10;100.00;99317.25;5053177;28;20032;-45
2023/04/01 06:20:44;;;;;;;24.20;17.67;;;;;;;10.13;100.00;99327.66;4972206;28;20066;-48
2023/04/01 06:23:28;;;;;;;25.50;17.50;;;;;;;10.15;100.00;99331.69;4972278;28;20046;-47
2023/04/01 06:26:02;;;;;;;23.92;18.20;;;;;;;10.15;100.00;99330.88;5026228;28;20108;-44
2023/04/01 06:29:05;;;;;;;22.25;17.40;;;;;;;10.15;100.00;99339.97;5049599;28;20064;-44
2023/04/01 06:31:50;;;;;;;23.00;17.17;;;;;;;10.17;100.00;99350.66;5053305;28;20119;-44
2023/04/01 06:34:35;;;;;;;23.15;17.25;;;;;;;10.18;100.00;99343.19;5052917;28;20033;-44
2023/04/01 06:37:36;;;;;;;22.25;17.45;;;;;;;10.21;100.00;99356.31;5053191;28;20036;-46
2023/04/01 06:40:27;;;;;;;24.15;18.90;;;;;;;10.18;100.00;99354.25;5013006;28;20044;-44
2023/04/01 06:43:12;;;;;;;24.38;18.92;;;;;;;10.18;100.00;99360.56;5021960;28;20044;-43
2023/04/01 06:45:40;;;;;;;23.23;18.35;;;;;;;10.25;100.00;99360.81;5052884;28;20044;-47
2023/04/01 06:48:15;;;;;;;23.98;18.25;;;;;;;10.35;100.00;99361.53;5053007;28;20045;-44
2023/04/01 06:50:46;;;;;;;24.02;18.48;;;;;;;10.42;100.00;99367.38;5034657;28;20052;-43
2023/04/01 06:53:14;;;;;;;23.55;18.48;;;;;;;10.45;100.00;99355.63;5051746;28;20033;-46
2023/04/01 06:55:45;;;;;;;23.35;17.83;;;;;;;10.51;100.00;99362.56;5051397;28;20036;-44
2023/04/01 06:58:35;;;;;;;22.40;17.20;;;;;;;10.55;100.00;99366.25;5051967;28;20142;-43
2023/04/01 07:01:05;;;;;;;23.20;17.77;;;;;;;10.51;100.00;99370.03;5051949;28;20032;-45
2023/04/01 07:03:39;;;;;;;24.38;17.55;;;;;;;10.50;100.00;99363.72;5051889;28;20037;-44
2023/04/01 07:06:12;;;;;;;23.02;17.40;;;;;;;10.55;100.00;99377.31;5052296;28;20027;-47
2023/04/01 07:08:40;;;;;;;24.60;16.60;;;;;;;10.73;100.00;99386.22;5052592;28;20048;-46
2023/04/01 07:11:26;;;;;;;22.40;17.50;;;;;;;10.73;100.00;99377.09;5052472;28;20074;-44
2023/04/01 07:14:01;;;;;;;23.27;17.52;;;;;;;10.79;100.00;99395.13;5052569;28;20029;-45
2023/04/01 07:16:35;;;;;;;23.10;17.30;;;;;;;10.79;100.00;99395.13;5052477;28;20071;-44
2023/04/01 07:19:13;;;;;;;22.50;16.88;;;;;;;10.80;100.00;99393.97;5034698;28;20060;-45
2023/04/01 07:21:47;;;;;;;23.17;17.73;;;;;;;10.81;100.00;99400.28;5034301;28;20065;-44
2023/04/01 07:24:25;;;;;;;23.63;17.05;;;;;;;10.85;100.00;99404.00;5034319;28;20601;-44
2023/04/01 07:26:55;;;;;;;23.33;17.10;;;;;;;10.84;100.00;99403.19;5052352;28;20033;-51
2023/04/01 07:29:21;;;;;;;23.60;16.95;;;;;;;10.84;100.00;99410.69;5052640;28;20048;-48
2023/04/01 07:31:49;;;;;;;22.40;16.52;;;;;;;10.85;100.00;99415.88;5052032;28;20427;-46
2023/04/01 07:34:31;;;;;;;22.63;16.40;;;;;;;10.88;100.00;99433.72;5052154;28;20029;-46
2023/04/01 07:37:06;;;;;;;22.80;16.58;;;;;;;10.90;100.00;99415.66;5051802;28;20123;-47
2023/04/01 07:39:49;;;;;;;23.15;16.23;;;;;;;10.99;100.00;99425.81;5052003;28;20098;-47
2023/04/01 07:42:26;;;;;;;22.88;15.98;;;;;;;11.02;100.00;99441.69;5051132;28;20059;-45
2023/04/01 07:45:09;;;;;;;23.17;15.48;;;;;;;11.03;100.00;99433.09;5051988;28;20180;-44
2023/04/01 07:47:41;;;;;;;23.40;15.38;;;;;;;11.08;100.00;99432.06;5051950;28;20033;-45
2023/04/01 07:50:27;;;;;;;24.73;16.20;;;;;;;11.08;100.00;99441.16;5033739;28;20455;-43
2023/04/01 07:53:06;;;;;;;22.92;15.95;;;;;;;11.11;100.00;99445.19;5051701;28;20494;-46
2023/04/01 07:56:04;;;;;;;23.15;15.88;;;;;;;11.14;100.00;99452.00;5051602;28;20044;-46
2023/04/01 07:58:44;;;;;;;23.60;15.65;;;;;;;11.12;100.00;99448.78;5034289;28;20037;-45
2023/04/01 08:01:20;;;;;;;22.55;15.25;;;;;;;11.07;100.00;99461.66;5051838;28;20500;-47
2023/04/01 08:04:23;;;;;;;22.50;15.18;;;;;;;11.03;100.00;99465.47;5051958;28;20029;-46
2023/04/01 08:07:04;;;;;;;24.02;15.75;;;;;;;11.14;100.00;99460.31;5051929;28;20025;-47
2023/04/01 08:09:59;;;;;;;20.98;15.00;;;;;;;11.18;100.00;99475.88;5055680;28;20435;-45
2023/04/01 08:12:32;;;;;;;21.70;15.27;;;;;;;11.19;100.00;99469.16;5055942;28;20436;-44
2023/04/01 08:15:31;;;;;;;22.57;15.73;;;;;;;11.19;100.00;99471.94;5056282;28;20029;-46
2023/04/01 08:18:21;;;;;;;21.63;14.82;;;;;;;11.22;100.00;99487.06;5055834;28;20106;-47
2023/04/01 08:20:58;;;;;;;22.02;16.05;;;;;;;11.21;100.00;99493.75;5055977;28;20060;-46
2023/04/01 08:23:30;;;;;;;22.98;15.77;;;;;;;11.16;100.00;99480.94;5055754;28;20128;-45
2023/04/01 08:26:06;;;;;;;23.63;15.57;;;;;;;11.17;100.00;99499.19;5055929;28;20025;-47
2023/04/01 08:28:51;;;;;;;23.50;17.02;;;;;;;11.08;100.00;99490.16;5056148;28;20061;-46
2023/04/01 08:31:28;;;;;;;22.85;16.92;;;;;;;11.13;100.00;99502.97;5055819;28;20561;-44
2023/04/01 08:33:55;;;;;;;25.30;17.15;;;;;;;10.99;100.00;99487.47;5055938;28;20036;-44
2023/04/01 08:36:30;;;;;;;22.23;16.38;;;;;;;11.12;100.00;99507.69;5055815;28;20230;-44
2023/04/01 08:39:05;;;;;;;23.15;15.80;;;;;;;11.15;100.00;99509.78;5055936;28;20021;-46
2023/04/01 08:41:44;;;;;;;24.30;17.48;;;;;;;11.08;100.00;99513.09;5055726;28;20059;-46
2023/04/01 08:44:25;;;;;;;25.48;17.70;;;;;;;11.08;100.00;99520.59;5055803;28;20071;-44
2023/04/01 08:47:07;;;;;;;24.58;17.35;;;;;;;10.89;100.00;99485.97;5055835;28;20068;-45
2023/04/01 08:50:01;;;;;;;26.70;17.67;;;;;;;11.10;100.00;99517.50;5055704;28;20028;-46
2023/04/01 08:52:35;;;;;;;23.85;16.88;;;;;;;11.07;100.00;99525.31;5055693;28;20074;-46
2023/04/01 08:55:19;;;;;;;24.17;17.10;;;;;;;11.15;100.00;99533.88;5055573;28;20398;-44
2023/04/01 08:58:13;;;;;;;23.23;17.08;;;;;;;11.18;100.00;99533.19;5055380;28;20028;-47
2023/04/01 09:00:43;;;;;;;;;;;;;;;11.24;100.00;99535.41;5018138;28;20045;-46
2023/04/01 09:03:11;;;;;;;23.25;16.98;;;;;;;11.25;100.00;99541.72;5055360;28;19962;-44
2023/04/01 09:05:47;;;;;;;24.42;17.77;;;;;;;11.19;100.00;99554.97;5055293;28;20055;-46
2023/04/01 09:08:49;;;;;;;25.08;17.40;;;;;;;11.13;100.00;99561.91;5037066;28;20156;-47
2023/04/01 09:11:33;;;;;;;22.88;16.67;;;;;;;11.09;100.00;99555.44;5054846;28;20043;-44
2023/04/01 09:14:01;;;;;;;;;;;;;;;11.15;100.00;99570.69;5055207;28;20029;-47
2023/04/01 09:16:52;;;;;;;23.88;17.15;;;;;;;11.07;100.00;99575.13;5054560;28;19963;-44
2023/04/01 09:19:24;;;;;;;24.05;16.63;;;;;;;11.04;100.00;99581.38;5009484;28;20071;-46
2023/04/01 09:22:17;;;;;;;23.05;16.90;;;;;;;11.08;100.00;99573.19;5054411;28;20029;-47
2023/04/01 09:25:10;;;;;;;23.45;16.88;;;;;;;11.12;100.00;99578.84;5054540;28;20439;-44
2023/04/01 09:28:11;;;;;;;24.67;16.25;;;;;;;11.11;100.00;99577.22;5054428;28;20029;-46
2023/04/01 09:30:40;;;;;;;23.85;16.58;;;;;;;11.23;100.00;99583.63;5053757;28;20040;-44
2023/04/01 09:33:32;;;;;;;24.70;17.80;;;;;;;11.19;100.00;99577.13;5054400;28;20032;-46
2023/04/01 09:36:20;;;;;;;21.77;15.32;;;;;;;11.24;100.00;99579.69;5054282;28;20029;-48
2023/04/01 09:39:13;;;;;;;22.33;15.85;;;;;;;11.28;100.00;99593.66;5054305;28;20112;-46
2023/04/01 09:41:55;;;;;;;23.33;16.02;;;;;;;11.29;100.00;99595.28;5054225;28;20025;-45
2023/04/01 09:44:45;;;;;;;21.30;15.52;;;;;;;11.30;100.00;99590.53;5036262;28;20033;-45
2023/04/01 09:47:28;;;;;;;23.50;16.23;;;;;;;11.34;100.00;99599.78;5054222;28;20086;-46
2023/04/01 09:50:27;;;;;;;22.88;15.85;;;;;;;11.43;100.00;99608.03;5054069;28;20025;-46
2023/04/01 09:53:21;;;;;;;22.48;15.70;;;;;;;11.43;100.00;99606.03;5054015;28;20029;-44
2023/04/01 09:56:05;;;;;;;22.02;15.23;;;;;;;11.41;100.00;99611.09;5053935;28;20021;-44
2023/04/01 09:58:54;;;;;;;22.40;15.52;;;;;;;11.38;100.00;99617.34;5053691;28;20509;-46
2023/04/01 10:01:39;;;;;;;21.40;15.40;;;;;;;11.37;100.00;99613.75;5053747;28;20021;-47
2023/04/01 10:04:07;;;;;;;22.00;15.90;;;;;;;11.44;100.00;99620.69;5053821;28;20033;-47
2023/04/01 10:07:06;;;;;;;21.90;14.85;;;;;;;11.45;100.00;99627.84;5053590;28;20061;-47
2023/04/01 10:10:09;;;;;;;21.15;15.00;;;;;;;11.44;100.00;99623.47;5053808;28;20040;-45
2023/04/01 10:12:55;;;;;;;20.35;15.27;;;;;;;11.45;100.00;99617.59;5053567;28;20021;-46
2023/04/01 10:15:39;;;;;;;21.45;15.25;;;;;;;11.51;100.00;99632.84;5053601;28;20228;-46
2023/04/01 10:18:11;;;;;;;;;;;;;;;11.56;100.00;99637.34;5053856;28;20033;-44
2023/04/01 10:20:54;;;;;;;21.42;15.43;;;;;;;11.56;100.00;99634.56;5053327;28;19966;-45
2023/04/01 10:23:41;;;;;;;20.80;15.52;;;;;;;11.63;100.00;99631.25;5053416;28;20055;-46
2023/04/01 10:26:37;;;;;;;20.05;15.00;;;;;;;11.65;100.00;99638.06;5053366;28;20056;-47
2023/04/01 10:29:21;;;;;;;19.15;13.82;;;;;;;11.66;100.00;99638.88;5053360;28;20061;-46
2023/04/01 10:32:24;;;;;;;20.73;14.95;;;;;;;11.69;100.00;99652.03;5052456;28;20047;-47
2023/04/01 10:35:29;;;;;;;19.55;14.48;;;;;;;11.63;100.00;99640.34;5053129;28;20061;-44
2023/04/01 10:38:23;;;;;;;19.30;14.13;;;;;;;11.52;100.00;99623.38;5053138;28;20039;-44
2023/04/01 10:41:24;;;;;;;20.77;13.93;;;;;;;11.71;100.00;99644.19;5053139;28;20025;-44
2023/04/01 10:44:31;;;;;;;19.15;13.77;;;;;;;11.73;100.00;99650.22;5053071;28;20047;-47
2023/04/01 10:47:40;;;;;;;18.48;13.80;;;;;;;11.76;100.00;99651.47;5053143;28;20098;-44
2023/04/01 10:50:34;;;;;;;19.50;13.27;;;;;;;11.72;100.00;99662.44;5052785;28;20052;-45
2023/04/01 10:53:39;;;;;;;19.70;13.93;;;;;;;11.71;100.00;99663.59;4981191;28;20051;-46
2023/04/01 10:56:30;;;;;;;19.02;13.60;;;;;;;11.73;100.00;99666.00;5052353;28;20490;-44
2023/04/01 10:59:32;;;;;;;18.80;13.55;;;;;;;11.72;100.00;99662.44;5052661;28;20037;-45
2023/04/01 11:02:22;;;;;;;18.25;13.43;;;;;;;11.75;100.00;99664.53;5052683;28;20087;-45
2023/04/01 11:05:24;;;;;;;20.50;14.27;;;;;;;11.74;100.00;99670.41;5052481;28;20039;-45
2023/04/01 11:08:16;;;;;;;19.25;14.05;;;;;;;11.69;100.00;99668.66;5052755;28;20021;-44
2023/04/01 11:11:03;;;;;;;18.15;13.15;;;;;;;11.73;100.00;99675.13;5052471;28;20037;-46
2023/04/01 11:13:49;;;;;;;18.73;13.25;;;;;;;11.78;100.00;99677.69;5052528;28;20025;-45
2023/04/01 11:16:27;;;;;;;18.90;13.55;;;;;;;11.70;100.00;99671.09;5037853;28;20039;-43
2023/04/01 11:19:07;;;;;;;18.85;13.85;;;;;;;11.71;100.00;99683.78;5048515;28;20029;-44
2023/04/01 11:21:44;;;;;;;20.15;14.38;;;;;;;11.69;100.00;99688.03;5043101;28;20108;-44
2023/04/01 11:24:38;;;;;;;20.38;14.95;;;;;;;11.69;100.00;99686.09;5038859;28;20079;-47
2023/04/01 11:27:27;;;;;;;20.87;15.63;;;;;;;11.74;100.00;99692.56;5032237;28;20048;-44
2023/04/01 11:30:20;;;;;;;20.17;15.25;;;;;;;11.73;100.00;99699.25;5032104;28;20133;-44
2023/04/01 11:33:03;;;;;;;20.98;15.10;;;;;;;11.77;100.00;99701.00;5031999;28;20095;-43
2023/04/01 11:35:36;;;;;;;21.88;15.65;;;;;;;11.79;100.00;99704.25;5032045;28;20026;-45
2023/04/01 11:38:26;;;;;;;20.58;15.85;;;;;;;11.79;100.00;99695.94;5033053;28;20026;-45
2023/04/01 11:41:00;;;;;;;21.00;16.60;;;;;;;11.82;100.00;99698.03;5030915;28;20056;-47
2023/04/01 11:43:59;;;;;;;20.58;15.93;;;;;;;11.91;100.00;99705.44;5030265;28;20030;-43
2023/04/01 11:46:44;;;;;;;22.48;16.88;;;;;;;11.94;100.00;99716.63;5030869;28;20487;-44
2023/04/01 11:49:47;;;;;;;21.33;16.52;;;;;;;12.02;100.00;99721.28;5030891;28;20034;-44